sensor_id;sensor_type;location;lat;lon;timestamp;temperature;humidity
31783;DHT22;18351;47.560;9.708;2023-11-19T00:00:11;7.00;99.90
31783;DHT22;18351;47.560;9.708;2023-11-19T00:02:38;7.00;99.90
31783;DHT22;18351;47.560;9.708;2023-11-19T00:05:04;7.00;99.90
31783;DHT22;18351;47.560;9.708;2023-11-19T00:07:32;7.00;99.90
31783;DHT22;18351;47.560;9.708;2023-11-19T00:09:57;7.00;99.90
31783;DHT22;18351;47.560;9.708;2023-11-19T00:12:23;7.00;99.90
31783;DHT22;18351;47.560;9.708;2023-11-19T00:14:49;6.90;99.90
31783;DHT22;18351;47.560;9.708;2023-11-19T00:17:15;6.90;99.90
31783;DHT22;18351;47.560;9.708;2023-11-19T00:19:41;6.90;99.90
31783;DHT22;18351;47.560;9.708;2023-11-19T00:22:07;6.90;99.90
31783;DHT22;18351;47.560;9.708;2023-11-19T00:24:32;7.00;99.90
31783;DHT22;18351;47.560;9.708;2023-11-19T00:26:58;6.90;99.90
31783;DHT22;18351;47.560;9.708;2023-11-19T00:29:24;7.00;99.90
31783;DHT22;18351;47.560;9.708;2023-11-19T00:31:50;7.00;99.90
31783;DHT22;18351;47.560;9.708;2023-11-19T00:34:15;7.00;99.90
31783;DHT22;18351;47.560;9.708;2023-11-19T00:36:41;7.00;99.90
31783;DHT22;18351;47.560;9.708;2023-11-19T00:39:06;7.00;99.90
31783;DHT22;18351;47.560;9.708;2023-11-19T00:41:32;7.00;99.90
31783;DHT22;18351;47.560;9.708;2023-11-19T00:43:57;7.00;99.90
31783;DHT22;18351;47.560;9.708;2023-11-19T00:46:23;6.90;99.90
31783;DHT22;18351;47.560;9.708;2023-11-19T00:48:48;6.90;99.90
31783;DHT22;18351;47.560;9.708;2023-11-19T00:51:14;6.90;99.90
31783;DHT22;18351;47.560;9.708;2023-11-19T00:53:40;6.90;99.90
31783;DHT22;18351;47.560;9.708;2023-11-19T00:56:05;7.00;99.90
31783;DHT22;18351;47.560;9.708;2023-11-19T00:58:31;6.90;99.90
31783;DHT22;18351;47.560;9.708;2023-11-19T01:00:57;6.90;99.90
31783;DHT22;18351;47.560;9.708;2023-11-19T01:03:23;6.90;99.90
31783;DHT22;18351;47.560;9.708;2023-11-19T01:05:48;6.90;99.90
31783;DHT22;18351;47.560;9.708;2023-11-19T01:08:14;6.90;99.90
31783;DHT22;18351;47.560;9.708;2023-11-19T01:10:41;7.00;99.90
31783;DHT22;18351;47.560;9.708;2023-11-19T01:13:06;7.00;99.90
31783;DHT22;18351;47.560;9.708;2023-11-19T01:15:32;7.00;99.90
31783;DHT22;18351;47.560;9.708;2023-11-19T01:17:58;7.00;99.90
31783;DHT22;18351;47.560;9.708;2023-11-19T01:20:23;7.00;99.90
31783;DHT22;18351;47.560;9.708;2023-11-19T01:22:50;7.10;99.90
31783;DHT22;18351;47.560;9.708;2023-11-19T01:25:15;7.10;99.90
31783;DHT22;18351;47.560;9.708;2023-11-19T01:27:41;7.10;99.90
31783;DHT22;18351;47.560;9.708;2023-11-19T01:30:07;7.10;99.90
31783;DHT22;18351;47.560;9.708;2023-11-19T01:32:36;7.10;99.90
31783;DHT22;18351;47.560;9.708;2023-11-19T01:35:03;7.20;99.90
31783;DHT22;18351;47.560;9.708;2023-11-19T01:37:29;7.20;99.90
31783;DHT22;18351;47.560;9.708;2023-11-19T01:39:55;7.20;99.90
31783;DHT22;18351;47.560;9.708;2023-11-19T01:42:20;7.20;99.90
31783;DHT22;18351;47.560;9.708;2023-11-19T01:44:59;7.30;99.90
31783;DHT22;18351;47.560;9.708;2023-11-19T01:47:28;7.30;99.90
31783;DHT22;18351;47.560;9.708;2023-11-19T01:49:56;7.30;99.90
31783;DHT22;18351;47.560;9.708;2023-11-19T01:52:22;7.30;99.90
31783;DHT22;18351;47.560;9.708;2023-11-19T01:54:49;7.40;99.90
31783;DHT22;18351;47.560;9.708;2023-11-19T01:57:15;7.40;99.90
31783;DHT22;18351;47.560;9.708;2023-11-19T01:59:40;7.40;99.90
31783;DHT22;18351;47.560;9.708;2023-11-19T02:02:07;7.30;99.90
31783;DHT22;18351;47.560;9.708;2023-11-19T02:04:33;7.30;99.90
31783;DHT22;18351;47.560;9.708;2023-11-19T02:07:00;7.20;99.90
31783;DHT22;18351;47.560;9.708;2023-11-19T02:09:26;7.30;99.90
31783;DHT22;18351;47.560;9.708;2023-11-19T02:11:52;7.30;99.90
31783;DHT22;18351;47.560;9.708;2023-11-19T02:14:21;7.30;99.90
31783;DHT22;18351;47.560;9.708;2023-11-19T02:16:49;7.40;99.90
31783;DHT22;18351;47.560;9.708;2023-11-19T02:19:14;7.40;99.90
31783;DHT22;18351;47.560;9.708;2023-11-19T02:21:40;7.40;99.90
31783;DHT22;18351;47.560;9.708;2023-11-19T02:24:08;7.40;99.90
31783;DHT22;18351;47.560;9.708;2023-11-19T02:29:13;7.40;99.90
31783;DHT22;18351;47.560;9.708;2023-11-19T02:31:39;7.30;99.90
31783;DHT22;18351;47.560;9.708;2023-11-19T02:34:04;7.40;99.90
31783;DHT22;18351;47.560;9.708;2023-11-19T02:36:31;7.30;99.90
31783;DHT22;18351;47.560;9.708;2023-11-19T02:38:58;7.40;99.90
31783;DHT22;18351;47.560;9.708;2023-11-19T02:41:23;7.50;99.90
31783;DHT22;18351;47.560;9.708;2023-11-19T02:43:49;7.50;99.90
31783;DHT22;18351;47.560;9.708;2023-11-19T02:46:15;7.50;99.90
31783;DHT22;18351;47.560;9.708;2023-11-19T02:48:42;7.50;99.90
31783;DHT22;18351;47.560;9.708;2023-11-19T02:51:09;7.60;99.90
31783;DHT22;18351;47.560;9.708;2023-11-19T02:53:35;7.60;99.90
31783;DHT22;18351;47.560;9.708;2023-11-19T02:56:02;7.50;99.90
31783;DHT22;18351;47.560;9.708;2023-11-19T02:58:37;7.50;99.90
31783;DHT22;18351;47.560;9.708;2023-11-19T03:01:02;7.40;99.90
31783;DHT22;18351;47.560;9.708;2023-11-19T03:03:38;7.50;99.90
31783;DHT22;18351;47.560;9.708;2023-11-19T03:06:06;7.40;99.90
31783;DHT22;18351;47.560;9.708;2023-11-19T03:08:35;7.40;99.90
31783;DHT22;18351;47.560;9.708;2023-11-19T03:11:01;7.40;99.90
31783;DHT22;18351;47.560;9.708;2023-11-19T03:13:26;7.50;99.90
31783;DHT22;18351;47.560;9.708;2023-11-19T03:15:52;7.40;99.90
31783;DHT22;18351;47.560;9.708;2023-11-19T03:18:19;7.40;99.90
31783;DHT22;18351;47.560;9.708;2023-11-19T03:20:46;7.50;99.90
31783;DHT22;18351;47.560;9.708;2023-11-19T03:23:12;7.50;99.90
31783;DHT22;18351;47.560;9.708;2023-11-19T03:25:37;7.50;99.90
31783;DHT22;18351;47.560;9.708;2023-11-19T03:28:04;7.50;99.90
31783;DHT22;18351;47.560;9.708;2023-11-19T03:30:30;7.50;99.90
31783;DHT22;18351;47.560;9.708;2023-11-19T03:32:56;7.70;99.90
31783;DHT22;18351;47.560;9.708;2023-11-19T03:35:23;7.50;99.90
31783;DHT22;18351;47.560;9.708;2023-11-19T03:37:49;7.50;99.90
31783;DHT22;18351;47.560;9.708;2023-11-19T03:40:14;7.50;99.90
31783;DHT22;18351;47.560;9.708;2023-11-19T03:42:40;7.50;99.90
31783;DHT22;18351;47.560;9.708;2023-11-19T03:45:07;7.50;99.90
31783;DHT22;18351;47.560;9.708;2023-11-19T03:47:35;7.50;99.90
31783;DHT22;18351;47.560;9.708;2023-11-19T03:50:01;7.50;99.90
31783;DHT22;18351;47.560;9.708;2023-11-19T03:52:27;7.60;99.90
31783;DHT22;18351;47.560;9.708;2023-11-19T03:54:53;7.50;99.90
31783;DHT22;18351;47.560;9.708;2023-11-19T03:57:20;7.60;99.90
31783;DHT22;18351;47.560;9.708;2023-11-19T03:59:46;7.60;99.90
31783;DHT22;18351;47.560;9.708;2023-11-19T04:02:12;7.60;99.90
31783;DHT22;18351;47.560;9.708;2023-11-19T04:04:37;7.60;99.90
31783;DHT22;18351;47.560;9.708;2023-11-19T04:07:04;7.60;99.90
31783;DHT22;18351;47.560;9.708;2023-11-19T04:09:30;7.70;99.90
31783;DHT22;18351;47.560;9.708;2023-11-19T04:11:56;7.80;99.90
31783;DHT22;18351;47.560;9.708;2023-11-19T04:14:22;7.80;99.90
31783;DHT22;18351;47.560;9.708;2023-11-19T04:16:48;7.80;99.90
31783;DHT22;18351;47.560;9.708;2023-11-19T04:19:13;7.70;99.90
31783;DHT22;18351;47.560;9.708;2023-11-19T04:21:42;7.70;99.90
31783;DHT22;18351;47.560;9.708;2023-11-19T04:24:09;7.70;99.90
31783;DHT22;18351;47.560;9.708;2023-11-19T04:26:40;7.60;99.90
31783;DHT22;18351;47.560;9.708;2023-11-19T04:29:08;7.70;99.90
31783;DHT22;18351;47.560;9.708;2023-11-19T04:31:34;7.70;99.90
31783;DHT22;18351;47.560;9.708;2023-11-19T04:33:59;7.70;99.90
31783;DHT22;18351;47.560;9.708;2023-11-19T04:36:25;7.80;99.90
31783;DHT22;18351;47.560;9.708;2023-11-19T04:38:51;7.80;99.90
31783;DHT22;18351;47.560;9.708;2023-11-19T04:41:17;7.80;99.90
31783;DHT22;18351;47.560;9.708;2023-11-19T04:43:43;7.80;99.90
31783;DHT22;18351;47.560;9.708;2023-11-19T04:46:09;7.80;99.90
31783;DHT22;18351;47.560;9.708;2023-11-19T04:48:35;7.80;99.90
31783;DHT22;18351;47.560;9.708;2023-11-19T04:51:01;7.70;99.90
31783;DHT22;18351;47.560;9.708;2023-11-19T04:53:26;7.70;99.90
31783;DHT22;18351;47.560;9.708;2023-11-19T04:55:52;7.70;99.90
31783;DHT22;18351;47.560;9.708;2023-11-19T04:58:17;7.90;99.90
31783;DHT22;18351;47.560;9.708;2023-11-19T05:00:44;7.90;99.90
31783;DHT22;18351;47.560;9.708;2023-11-19T05:03:10;8.00;99.90
31783;DHT22;18351;47.560;9.708;2023-11-19T05:05:36;7.90;99.90
31783;DHT22;18351;47.560;9.708;2023-11-19T05:08:02;7.90;99.90
31783;DHT22;18351;47.560;9.708;2023-11-19T05:10:28;7.90;99.90
31783;DHT22;18351;47.560;9.708;2023-11-19T05:12:53;7.90;99.90
31783;DHT22;18351;47.560;9.708;2023-11-19T05:15:21;7.90;99.90
31783;DHT22;18351;47.560;9.708;2023-11-19T05:17:47;7.90;99.90
31783;DHT22;18351;47.560;9.708;2023-11-19T05:20:12;7.90;99.90
31783;DHT22;18351;47.560;9.708;2023-11-19T05:22:42;7.90;99.90
31783;DHT22;18351;47.560;9.708;2023-11-19T05:25:08;7.90;99.90
31783;DHT22;18351;47.560;9.708;2023-11-19T05:27:36;7.90;99.90
31783;DHT22;18351;47.560;9.708;2023-11-19T05:30:05;7.90;99.90
31783;DHT22;18351;47.560;9.708;2023-11-19T05:32:35;7.90;99.90
31783;DHT22;18351;47.560;9.708;2023-11-19T05:35:01;7.90;99.90
31783;DHT22;18351;47.560;9.708;2023-11-19T05:37:27;8.00;99.90
31783;DHT22;18351;47.560;9.708;2023-11-19T05:39:52;8.00;99.90
31783;DHT22;18351;47.560;9.708;2023-11-19T05:42:18;7.90;99.90
31783;DHT22;18351;47.560;9.708;2023-11-19T05:44:44;7.90;99.90
31783;DHT22;18351;47.560;9.708;2023-11-19T05:47:09;7.90;99.90
31783;DHT22;18351;47.560;9.708;2023-11-19T05:49:35;7.90;99.90
31783;DHT22;18351;47.560;9.708;2023-11-19T05:52:00;7.90;99.90
31783;DHT22;18351;47.560;9.708;2023-11-19T05:54:28;8.00;99.90
31783;DHT22;18351;47.560;9.708;2023-11-19T05:56:54;8.00;99.90
31783;DHT22;18351;47.560;9.708;2023-11-19T05:59:20;8.00;99.90
31783;DHT22;18351;47.560;9.708;2023-11-19T06:01:45;8.00;99.90
31783;DHT22;18351;47.560;9.708;2023-11-19T06:04:11;8.00;99.90
31783;DHT22;18351;47.560;9.708;2023-11-19T06:06:37;8.00;99.90
31783;DHT22;18351;47.560;9.708;2023-11-19T06:09:03;8.00;99.90
31783;DHT22;18351;47.560;9.708;2023-11-19T06:11:29;8.00;99.90
31783;DHT22;18351;47.560;9.708;2023-11-19T06:13:55;8.10;99.90
31783;DHT22;18351;47.560;9.708;2023-11-19T06:16:21;8.10;99.90
31783;DHT22;18351;47.560;9.708;2023-11-19T06:18:47;8.00;99.90
31783;DHT22;18351;47.560;9.708;2023-11-19T06:21:12;8.00;99.90
31783;DHT22;18351;47.560;9.708;2023-11-19T06:23:38;8.10;99.90
31783;DHT22;18351;47.560;9.708;2023-11-19T06:26:04;8.10;99.90
31783;DHT22;18351;47.560;9.708;2023-11-19T06:28:30;8.10;99.90
31783;DHT22;18351;47.560;9.708;2023-11-19T06:30:56;8.00;99.90
31783;DHT22;18351;47.560;9.708;2023-11-19T06:33:23;8.00;99.90
31783;DHT22;18351;47.560;9.708;2023-11-19T06:35:49;8.00;99.90
31783;DHT22;18351;47.560;9.708;2023-11-19T06:38:15;8.00;99.90
31783;DHT22;18351;47.560;9.708;2023-11-19T06:40:40;7.90;99.90
31783;DHT22;18351;47.560;9.708;2023-11-19T06:43:06;7.90;99.90
31783;DHT22;18351;47.560;9.708;2023-11-19T06:45:34;7.90;99.90
31783;DHT22;18351;47.560;9.708;2023-11-19T06:48:02;7.90;99.90
31783;DHT22;18351;47.560;9.708;2023-11-19T06:50:29;8.00;99.90
31783;DHT22;18351;47.560;9.708;2023-11-19T06:52:54;8.00;99.90
31783;DHT22;18351;47.560;9.708;2023-11-19T06:55:20;8.00;99.90
31783;DHT22;18351;47.560;9.708;2023-11-19T06:57:45;8.00;99.90
31783;DHT22;18351;47.560;9.708;2023-11-19T07:00:12;7.90;99.90
31783;DHT22;18351;47.560;9.708;2023-11-19T07:02:37;7.90;99.90
31783;DHT22;18351;47.560;9.708;2023-11-19T07:05:03;7.90;99.90
31783;DHT22;18351;47.560;9.708;2023-11-19T07:07:31;7.90;99.90
31783;DHT22;18351;47.560;9.708;2023-11-19T07:09:57;8.00;99.90
31783;DHT22;18351;47.560;9.708;2023-11-19T07:12:23;8.10;99.90
31783;DHT22;18351;47.560;9.708;2023-11-19T07:14:52;8.00;99.90
31783;DHT22;18351;47.560;9.708;2023-11-19T07:17:18;8.00;99.90
31783;DHT22;18351;47.560;9.708;2023-11-19T07:19:44;8.00;99.90
31783;DHT22;18351;47.560;9.708;2023-11-19T07:22:09;8.00;99.90
31783;DHT22;18351;47.560;9.708;2023-11-19T07:24:39;8.00;99.90
31783;DHT22;18351;47.560;9.708;2023-11-19T07:27:05;8.00;99.90
31783;DHT22;18351;47.560;9.708;2023-11-19T07:29:32;8.00;99.90
31783;DHT22;18351;47.560;9.708;2023-11-19T07:31:57;8.00;99.90
31783;DHT22;18351;47.560;9.708;2023-11-19T07:34:24;8.00;99.90
31783;DHT22;18351;47.560;9.708;2023-11-19T07:36:50;8.10;99.90
31783;DHT22;18351;47.560;9.708;2023-11-19T07:39:15;8.00;99.90
31783;DHT22;18351;47.560;9.708;2023-11-19T07:41:41;8.00;99.90
31783;DHT22;18351;47.560;9.708;2023-11-19T07:44:06;8.10;99.90
31783;DHT22;18351;47.560;9.708;2023-11-19T07:46:32;8.10;99.90
31783;DHT22;18351;47.560;9.708;2023-11-19T07:48:58;8.10;99.90
31783;DHT22;18351;47.560;9.708;2023-11-19T07:51:23;8.10;99.90
31783;DHT22;18351;47.560;9.708;2023-11-19T07:53:49;8.20;99.90
31783;DHT22;18351;47.560;9.708;2023-11-19T07:56:15;8.20;99.90
31783;DHT22;18351;47.560;9.708;2023-11-19T07:58:40;8.30;99.90
31783;DHT22;18351;47.560;9.708;2023-11-19T08:01:06;8.30;99.90
31783;DHT22;18351;47.560;9.708;2023-11-19T08:03:32;8.30;99.90
31783;DHT22;18351;47.560;9.708;2023-11-19T08:05:59;8.30;99.90
31783;DHT22;18351;47.560;9.708;2023-11-19T08:08:25;8.40;99.90
31783;DHT22;18351;47.560;9.708;2023-11-19T08:10:51;8.50;99.90
31783;DHT22;18351;47.560;9.708;2023-11-19T08:13:18;8.50;99.90
31783;DHT22;18351;47.560;9.708;2023-11-19T08:15:43;8.60;99.90
31783;DHT22;18351;47.560;9.708;2023-11-19T08:18:09;8.60;99.90
31783;DHT22;18351;47.560;9.708;2023-11-19T08:20:35;8.70;99.90
31783;DHT22;18351;47.560;9.708;2023-11-19T08:23:02;8.70;99.90
31783;DHT22;18351;47.560;9.708;2023-11-19T08:25:29;8.80;99.90
31783;DHT22;18351;47.560;9.708;2023-11-19T08:27:54;8.90;99.90
31783;DHT22;18351;47.560;9.708;2023-11-19T08:30:20;8.90;99.90
31783;DHT22;18351;47.560;9.708;2023-11-19T08:32:46;8.90;99.90
31783;DHT22;18351;47.560;9.708;2023-11-19T08:35:11;9.00;99.90
31783;DHT22;18351;47.560;9.708;2023-11-19T08:37:37;8.90;99.90
31783;DHT22;18351;47.560;9.708;2023-11-19T08:40:04;8.90;99.90
31783;DHT22;18351;47.560;9.708;2023-11-19T08:42:30;8.90;99.90
31783;DHT22;18351;47.560;9.708;2023-11-19T08:44:55;9.00;99.90
31783;DHT22;18351;47.560;9.708;2023-11-19T08:47:21;9.10;99.90
31783;DHT22;18351;47.560;9.708;2023-11-19T08:49:51;9.10;99.90
31783;DHT22;18351;47.560;9.708;2023-11-19T08:52:17;9.10;99.90
31783;DHT22;18351;47.560;9.708;2023-11-19T08:54:43;9.20;99.90
31783;DHT22;18351;47.560;9.708;2023-11-19T08:57:09;9.30;99.90
31783;DHT22;18351;47.560;9.708;2023-11-19T08:59:35;9.30;99.90
31783;DHT22;18351;47.560;9.708;2023-11-19T09:02:00;9.30;99.90
31783;DHT22;18351;47.560;9.708;2023-11-19T09:04:26;9.40;99.90
31783;DHT22;18351;47.560;9.708;2023-11-19T09:06:51;9.50;99.90
31783;DHT22;18351;47.560;9.708;2023-11-19T09:09:17;9.50;99.90
31783;DHT22;18351;47.560;9.708;2023-11-19T09:11:42;9.60;99.90
31783;DHT22;18351;47.560;9.708;2023-11-19T09:14:08;9.60;99.90
31783;DHT22;18351;47.560;9.708;2023-11-19T09:16:34;9.60;99.90
31783;DHT22;18351;47.560;9.708;2023-11-19T09:19:00;9.70;99.90
31783;DHT22;18351;47.560;9.708;2023-11-19T09:21:26;9.60;99.90
31783;DHT22;18351;47.560;9.708;2023-11-19T09:23:51;9.60;99.90
31783;DHT22;18351;47.560;9.708;2023-11-19T09:26:18;9.70;99.90
31783;DHT22;18351;47.560;9.708;2023-11-19T09:28:43;9.70;99.90
31783;DHT22;18351;47.560;9.708;2023-11-19T09:31:18;9.70;99.90
31783;DHT22;18351;47.560;9.708;2023-11-19T09:33:44;9.70;99.90
31783;DHT22;18351;47.560;9.708;2023-11-19T09:36:13;9.50;99.90
31783;DHT22;18351;47.560;9.708;2023-11-19T09:38:45;9.50;99.90
31783;DHT22;18351;47.560;9.708;2023-11-19T09:41:11;9.50;99.90
31783;DHT22;18351;47.560;9.708;2023-11-19T09:43:42;9.50;99.90
31783;DHT22;18351;47.560;9.708;2023-11-19T09:46:14;9.50;99.90
31783;DHT22;18351;47.560;9.708;2023-11-19T09:48:41;9.50;99.90
31783;DHT22;18351;47.560;9.708;2023-11-19T09:51:09;9.50;99.90
31783;DHT22;18351;47.560;9.708;2023-11-19T09:53:36;9.50;99.90
31783;DHT22;18351;47.560;9.708;2023-11-19T09:56:02;9.60;99.90
31783;DHT22;18351;47.560;9.708;2023-11-19T09:58:29;9.60;99.90
31783;DHT22;18351;47.560;9.708;2023-11-19T10:00:56;9.70;99.90
31783;DHT22;18351;47.560;9.708;2023-11-19T10:03:25;9.60;99.90
31783;DHT22;18351;47.560;9.708;2023-11-19T10:05:52;9.60;99.90
31783;DHT22;18351;47.560;9.708;2023-11-19T10:08:18;9.60;99.90
31783;DHT22;18351;47.560;9.708;2023-11-19T10:10:44;9.70;99.90
31783;DHT22;18351;47.560;9.708;2023-11-19T10:13:10;9.70;99.90
31783;DHT22;18351;47.560;9.708;2023-11-19T10:15:57;9.80;99.90
31783;DHT22;18351;47.560;9.708;2023-11-19T10:18:26;9.90;99.90
31783;DHT22;18351;47.560;9.708;2023-11-19T10:20:52;10.00;99.90
31783;DHT22;18351;47.560;9.708;2023-11-19T10:23:18;10.10;99.90
31783;DHT22;18351;47.560;9.708;2023-11-19T10:25:43;10.10;99.90
31783;DHT22;18351;47.560;9.708;2023-11-19T10:28:09;10.20;99.90
31783;DHT22;18351;47.560;9.708;2023-11-19T10:30:34;10.20;99.90
31783;DHT22;18351;47.560;9.708;2023-11-19T10:33:04;10.30;99.90
31783;DHT22;18351;47.560;9.708;2023-11-19T10:35:34;10.30;99.90
31783;DHT22;18351;47.560;9.708;2023-11-19T10:38:15;10.30;99.90
31783;DHT22;18351;47.560;9.708;2023-11-19T10:40:41;10.40;99.90
31783;DHT22;18351;47.560;9.708;2023-11-19T10:43:07;10.40;99.90
31783;DHT22;18351;47.560;9.708;2023-11-19T10:45:34;10.50;99.90
31783;DHT22;18351;47.560;9.708;2023-11-19T10:48:02;10.70;99.90
31783;DHT22;18351;47.560;9.708;2023-11-19T10:50:29;10.90;99.90
31783;DHT22;18351;47.560;9.708;2023-11-19T10:52:59;11.20;99.90
31783;DHT22;18351;47.560;9.708;2023-11-19T10:55:30;11.40;99.90
31783;DHT22;18351;47.560;9.708;2023-11-19T10:57:59;11.50;99.90
31783;DHT22;18351;47.560;9.708;2023-11-19T11:00:25;11.60;99.90
31783;DHT22;18351;47.560;9.708;2023-11-19T11:02:56;11.60;99.90
31783;DHT22;18351;47.560;9.708;2023-11-19T11:05:26;11.60;99.90
31783;DHT22;18351;47.560;9.708;2023-11-19T11:07:52;11.60;99.90
31783;DHT22;18351;47.560;9.708;2023-11-19T11:10:21;11.60;99.90
31783;DHT22;18351;47.560;9.708;2023-11-19T11:12:52;11.60;99.90
31783;DHT22;18351;47.560;9.708;2023-11-19T11:15:26;11.60;99.90
31783;DHT22;18351;47.560;9.708;2023-11-19T11:17:56;11.70;99.90
31783;DHT22;18351;47.560;9.708;2023-11-19T11:20:22;11.60;99.90
31783;DHT22;18351;47.560;9.708;2023-11-19T11:23:07;11.50;99.90
31783;DHT22;18351;47.560;9.708;2023-11-19T11:26:23;11.50;99.90
31783;DHT22;18351;47.560;9.708;2023-11-19T11:29:01;11.60;99.90
31783;DHT22;18351;47.560;9.708;2023-11-19T11:34:44;11.50;99.90
31783;DHT22;18351;47.560;9.708;2023-11-19T11:37:25;11.50;99.90
31783;DHT22;18351;47.560;9.708;2023-11-19T11:39:51;11.40;99.90
31783;DHT22;18351;47.560;9.708;2023-11-19T11:45:07;11.30;99.90
31783;DHT22;18351;47.560;9.708;2023-11-19T11:50:18;11.20;99.90
31783;DHT22;18351;47.560;9.708;2023-11-19T11:55:52;11.20;99.90
31783;DHT22;18351;47.560;9.708;2023-11-19T11:58:21;11.20;99.90
31783;DHT22;18351;47.560;9.708;2023-11-19T12:00:48;11.20;99.90
31783;DHT22;18351;47.560;9.708;2023-11-19T12:03:14;11.20;99.90
31783;DHT22;18351;47.560;9.708;2023-11-19T12:05:44;11.20;99.90
31783;DHT22;18351;47.560;9.708;2023-11-19T12:08:11;11.30;99.90
31783;DHT22;18351;47.560;9.708;2023-11-19T12:10:44;11.40;99.90
31783;DHT22;18351;47.560;9.708;2023-11-19T12:13:10;11.50;99.90
31783;DHT22;18351;47.560;9.708;2023-11-19T12:18:31;11.60;99.90
31783;DHT22;18351;47.560;9.708;2023-11-19T12:20:58;11.50;99.90
31783;DHT22;18351;47.560;9.708;2023-11-19T12:23:29;11.40;99.90
31783;DHT22;18351;47.560;9.708;2023-11-19T12:25:55;11.40;99.90
31783;DHT22;18351;47.560;9.708;2023-11-19T12:28:21;11.30;99.90
31783;DHT22;18351;47.560;9.708;2023-11-19T12:30:48;11.20;99.90
31783;DHT22;18351;47.560;9.708;2023-11-19T12:33:14;11.20;99.90
31783;DHT22;18351;47.560;9.708;2023-11-19T12:35:40;11.20;99.90
31783;DHT22;18351;47.560;9.708;2023-11-19T12:38:07;11.20;99.90
31783;DHT22;18351;47.560;9.708;2023-11-19T12:40:33;11.20;99.90
31783;DHT22;18351;47.560;9.708;2023-11-19T12:42:59;11.20;99.90
31783;DHT22;18351;47.560;9.708;2023-11-19T12:45:34;11.10;99.90
31783;DHT22;18351;47.560;9.708;2023-11-19T12:48:07;11.00;99.90
31783;DHT22;18351;47.560;9.708;2023-11-19T12:53:18;11.00;99.90
31783;DHT22;18351;47.560;9.708;2023-11-19T12:55:44;11.00;99.90
31783;DHT22;18351;47.560;9.708;2023-11-19T12:58:10;10.90;99.90
31783;DHT22;18351;47.560;9.708;2023-11-19T13:00:36;11.00;99.90
31783;DHT22;18351;47.560;9.708;2023-11-19T13:03:01;11.00;99.90
31783;DHT22;18351;47.560;9.708;2023-11-19T13:05:32;11.00;99.90
31783;DHT22;18351;47.560;9.708;2023-11-19T13:10:28;11.10;99.90
31783;DHT22;18351;47.560;9.708;2023-11-19T13:13:08;11.10;99.90
31783;DHT22;18351;47.560;9.708;2023-11-19T13:15:34;11.20;99.90
31783;DHT22;18351;47.560;9.708;2023-11-19T13:18:01;11.20;99.90
31783;DHT22;18351;47.560;9.708;2023-11-19T13:20:27;11.20;99.90
31783;DHT22;18351;47.560;9.708;2023-11-19T13:23:04;11.20;99.90
31783;DHT22;18351;47.560;9.708;2023-11-19T13:25:30;11.30;99.90
31783;DHT22;18351;47.560;9.708;2023-11-19T13:27:57;11.30;99.90
31783;DHT22;18351;47.560;9.708;2023-11-19T13:30:23;11.30;99.90
31783;DHT22;18351;47.560;9.708;2023-11-19T13:32:50;11.40;99.90
31783;DHT22;18351;47.560;9.708;2023-11-19T13:35:16;11.40;99.90
31783;DHT22;18351;47.560;9.708;2023-11-19T13:37:45;11.40;99.90
31783;DHT22;18351;47.560;9.708;2023-11-19T13:40:11;11.40;99.90
31783;DHT22;18351;47.560;9.708;2023-11-19T13:42:40;11.40;99.90
31783;DHT22;18351;47.560;9.708;2023-11-19T13:45:08;11.40;99.90
31783;DHT22;18351;47.560;9.708;2023-11-19T13:47:37;11.40;99.90
31783;DHT22;18351;47.560;9.708;2023-11-19T13:50:09;11.40;99.90
31783;DHT22;18351;47.560;9.708;2023-11-19T13:52:36;11.50;99.90
31783;DHT22;18351;47.560;9.708;2023-11-19T13:55:04;11.50;99.90
31783;DHT22;18351;47.560;9.708;2023-11-19T13:57:31;11.50;99.90
31783;DHT22;18351;47.560;9.708;2023-11-19T13:59:57;11.60;99.90
31783;DHT22;18351;47.560;9.708;2023-11-19T14:02:22;11.60;99.90
31783;DHT22;18351;47.560;9.708;2023-11-19T14:04:48;11.70;99.90
31783;DHT22;18351;47.560;9.708;2023-11-19T14:07:14;11.70;99.90
31783;DHT22;18351;47.560;9.708;2023-11-19T14:09:42;11.80;99.90
31783;DHT22;18351;47.560;9.708;2023-11-19T14:12:08;11.80;99.90
31783;DHT22;18351;47.560;9.708;2023-11-19T14:14:35;11.90;99.90
31783;DHT22;18351;47.560;9.708;2023-11-19T14:17:02;11.90;99.90
31783;DHT22;18351;47.560;9.708;2023-11-19T14:19:28;11.90;99.90
31783;DHT22;18351;47.560;9.708;2023-11-19T14:21:54;11.80;99.90
31783;DHT22;18351;47.560;9.708;2023-11-19T14:24:19;11.80;99.90
31783;DHT22;18351;47.560;9.708;2023-11-19T14:26:46;11.80;99.90
31783;DHT22;18351;47.560;9.708;2023-11-19T14:29:12;11.80;99.90
31783;DHT22;18351;47.560;9.708;2023-11-19T14:31:38;11.80;99.90
31783;DHT22;18351;47.560;9.708;2023-11-19T14:34:05;11.70;99.90
31783;DHT22;18351;47.560;9.708;2023-11-19T14:36:30;11.70;99.90
31783;DHT22;18351;47.560;9.708;2023-11-19T14:38:56;11.80;99.90
31783;DHT22;18351;47.560;9.708;2023-11-19T14:41:24;11.90;99.90
31783;DHT22;18351;47.560;9.708;2023-11-19T14:43:50;11.90;99.90
31783;DHT22;18351;47.560;9.708;2023-11-19T14:46:15;11.90;99.90
31783;DHT22;18351;47.560;9.708;2023-11-19T14:48:41;12.00;99.90
31783;DHT22;18351;47.560;9.708;2023-11-19T14:51:06;12.00;99.90
31783;DHT22;18351;47.560;9.708;2023-11-19T14:53:32;11.90;99.90
31783;DHT22;18351;47.560;9.708;2023-11-19T14:55:58;11.90;99.90
31783;DHT22;18351;47.560;9.708;2023-11-19T14:58:24;11.90;99.90
31783;DHT22;18351;47.560;9.708;2023-11-19T15:00:51;11.90;99.90
31783;DHT22;18351;47.560;9.708;2023-11-19T15:03:17;11.80;99.90
31783;DHT22;18351;47.560;9.708;2023-11-19T15:05:45;11.80;99.90
31783;DHT22;18351;47.560;9.708;2023-11-19T15:08:11;11.70;99.90
31783;DHT22;18351;47.560;9.708;2023-11-19T15:10:37;11.70;99.90
31783;DHT22;18351;47.560;9.708;2023-11-19T15:13:03;11.60;99.90
31783;DHT22;18351;47.560;9.708;2023-11-19T15:15:29;11.50;99.90
31783;DHT22;18351;47.560;9.708;2023-11-19T15:17:55;11.50;99.90
31783;DHT22;18351;47.560;9.708;2023-11-19T15:20:20;11.40;99.90
31783;DHT22;18351;47.560;9.708;2023-11-19T15:22:46;11.40;99.90
31783;DHT22;18351;47.560;9.708;2023-11-19T15:25:12;11.20;99.90
31783;DHT22;18351;47.560;9.708;2023-11-19T15:27:38;11.20;99.90
31783;DHT22;18351;47.560;9.708;2023-11-19T15:30:05;11.20;99.90
31783;DHT22;18351;47.560;9.708;2023-11-19T15:32:30;11.20;99.90
31783;DHT22;18351;47.560;9.708;2023-11-19T15:34:58;11.20;99.90
31783;DHT22;18351;47.560;9.708;2023-11-19T15:37:24;11.10;99.90
31783;DHT22;18351;47.560;9.708;2023-11-19T15:39:49;11.00;99.90
31783;DHT22;18351;47.560;9.708;2023-11-19T15:42:17;10.90;99.90
31783;DHT22;18351;47.560;9.708;2023-11-19T15:44:42;10.80;99.90
31783;DHT22;18351;47.560;9.708;2023-11-19T15:47:09;10.70;99.90
31783;DHT22;18351;47.560;9.708;2023-11-19T15:49:35;10.70;99.90
31783;DHT22;18351;47.560;9.708;2023-11-19T15:52:02;10.60;99.90
31783;DHT22;18351;47.560;9.708;2023-11-19T15:54:28;10.50;99.90
31783;DHT22;18351;47.560;9.708;2023-11-19T15:56:53;10.40;99.90
31783;DHT22;18351;47.560;9.708;2023-11-19T15:59:19;10.40;99.90